Time;durP1;ratioP1;P1;durP2;ratioP2;P2;SDS_P1;SDS_P2;PMS_P1;PMS_P2;Temp;Humidity;BMP_temperature;BMP_pressure;BME280_temperature;BME280_humidity;BME280_pressure;Samples;Min_cycle;Max_cycle;Signal;HPM_P1;HPM_P2
2022/06/06 00:00:03;;;;;;;9.18;6.08;;;;;;;;;;1716854;82;21625;-73
2022/06/06 00:02:31;;;;;;;8.30;5.60;;;;;;;;;;1732887;82;21162;-73
2022/06/06 00:04:59;;;;;;;8.43;6.55;;;;;;;;;;1728584;82;21020;-73
2022/06/06 00:07:25;;;;;;;6.72;5.67;;;;;;;;;;1714873;82;21511;-73
2022/06/06 00:09:53;;;;;;;7.42;5.45;;;;;;;;;;1727914;82;21001;-73
2022/06/06 00:12:24;;;;;;;7.50;5.97;;;;;;;;;;1709288;83;21008;-73
2022/06/06 00:14:47;;;;;;;7.10;5.60;;;;;;;;;;1714041;82;21057;-73
2022/06/06 00:17:14;;;;;;;8.60;6.12;;;;;;;;;;1714862;82;21043;-73
2022/06/06 00:19:41;;;;;;;7.95;6.53;;;;;;;;;;1741558;82;21031;-73
2022/06/06 00:22:07;;;;;;;7.47;5.90;;;;;;;;;;1717295;82;21037;-73
2022/06/06 00:24:34;;;;;;;8.63;6.58;;;;;;;;;;1730811;82;21060;-72
2022/06/06 00:27:00;;;;;;;10.35;6.08;;;;;;;;;;1747117;82;21531;-72
2022/06/06 00:29:27;;;;;;;6.87;5.58;;;;;;;;;;1744570;82;21100;-72
2022/06/06 00:34:51;;;;;;;7.83;6.10;;;;;;;;;;1755467;82;21075;-72
2022/06/06 00:37:22;;;;;;;7.85;6.75;;;;;;;;;;1750957;82;20997;-73
2022/06/06 00:39:51;;;;;;;6.30;5.47;;;;;;;;;;1729468;82;20952;-73
2022/06/06 00:42:28;;;;;;;7.40;6.05;;;;;;;;;;1736466;82;21051;-73
2022/06/06 00:45:13;;;;;;;9.28;6.97;;;;;;;;;;1755476;82;20957;-73
2022/06/06 00:47:40;;;;;;;9.20;6.40;;;;;;;;;;1755464;82;21028;-73
2022/06/06 00:50:08;;;;;;;7.92;6.42;;;;;;;;;;1742863;82;21068;-73
2022/06/06 00:52:36;;;;;;;8.95;6.28;;;;;;;;;;1749764;82;22167;-73
2022/06/06 00:55:04;;;;;;;7.67;6.30;;;;;;;;;;1755347;82;21061;-73
2022/06/06 00:57:31;;;;;;;7.65;6.62;;;;;;;;;;1755713;82;22109;-72
2022/06/06 00:59:58;;;;;;;8.25;6.35;;;;;;;;;;1754761;82;21040;-72
2022/06/06 01:05:14;;;;;;;10.45;6.62;;;;;;;;;;1769232;79;21138;-75
2022/06/06 01:07:41;;;;;;;8.93;6.35;;;;;;;;;;1786285;80;21087;-76
2022/06/06 01:10:07;;;;;;;9.60;6.42;;;;;;;;;;1786330;80;21028;-75
2022/06/06 01:12:34;;;;;;;9.23;6.50;;;;;;;;;;1786554;80;21524;-76
2022/06/06 01:15:01;;;;;;;9.95;6.65;;;;;;;;;;1786313;80;21064;-74
2022/06/06 01:17:41;;;;;;;9.48;6.65;;;;;;;;;;1786162;80;21056;-75
2022/06/06 01:20:10;;;;;;;9.30;6.33;;;;;;;;;;1786396;80;21021;-76
2022/06/06 01:22:41;;;;;;;11.55;6.70;;;;;;;;;;1785895;79;21068;-75
2022/06/06 01:25:12;;;;;;;9.00;6.75;;;;;;;;;;1786372;80;21103;-74
2022/06/06 01:27:49;;;;;;;11.25;7.35;;;;;;;;;;1786465;80;21044;-75
2022/06/06 01:30:16;;;;;;;10.88;6.90;;;;;;;;;;1759583;81;20976;-75
2022/06/06 01:32:44;;;;;;;9.23;6.25;;;;;;;;;;1759452;81;21542;-75
2022/06/06 01:35:12;;;;;;;10.72;7.90;;;;;;;;;;1759664;81;21063;-75
2022/06/06 01:37:39;;;;;;;9.48;6.65;;;;;;;;;;1730032;81;21007;-76
2022/06/06 01:40:11;;;;;;;9.78;7.15;;;;;;;;;;1759367;80;21119;-76
2022/06/06 01:42:54;;;;;;;10.08;7.00;;;;;;;;;;1759615;80;21015;-75
2022/06/06 01:45:22;;;;;;;8.67;6.90;;;;;;;;;;1736172;81;21055;-76
2022/06/06 01:47:53;;;;;;;10.30;6.87;;;;;;;;;;1759490;81;21719;-76
2022/06/06 01:50:20;;;;;;;10.43;7.40;;;;;;;;;;1759402;81;21581;-75
2022/06/06 01:52:55;;;;;;;8.90;6.37;;;;;;;;;;1758170;81;21071;-76
2022/06/06 01:55:22;;;;;;;8.73;6.50;;;;;;;;;;1759475;80;21004;-74
2022/06/06 01:57:50;;;;;;;9.35;7.08;;;;;;;;;;1749797;81;21716;-75
2022/06/06 02:00:16;;;;;;;10.00;6.97;;;;;;;;;;1759238;81;21051;-75
2022/06/06 02:02:43;;;;;;;9.73;7.10;;;;;;;;;;1744905;81;21004;-75
2022/06/06 02:05:12;;;;;;;8.68;7.12;;;;;;;;;;1751990;80;21104;-75
2022/06/06 02:07:39;;;;;;;9.53;6.80;;;;;;;;;;1750989;82;21651;-75
2022/06/06 02:10:06;;;;;;;9.48;6.72;;;;;;;;;;1751323;82;21029;-75
2022/06/06 02:12:32;;;;;;;9.43;7.60;;;;;;;;;;1751264;82;21535;-74
2022/06/06 02:14:58;;;;;;;9.28;6.95;;;;;;;;;;1751419;82;21005;-75
2022/06/06 02:17:23;;;;;;;10.20;7.10;;;;;;;;;;1751590;82;21063;-75
2022/06/06 02:19:50;;;;;;;10.95;7.60;;;;;;;;;;1751029;82;21001;-75
2022/06/06 02:22:16;;;;;;;8.03;6.83;;;;;;;;;;1751561;82;21004;-76
2022/06/06 02:24:42;;;;;;;10.80;7.15;;;;;;;;;;1751357;82;21511;-75
2022/06/06 02:27:08;;;;;;;10.20;7.35;;;;;;;;;;1751533;82;21040;-75
2022/06/06 02:29:34;;;;;;;10.13;6.95;;;;;;;;;;1751329;82;21032;-75
2022/06/06 02:32:01;;;;;;;10.30;7.60;;;;;;;;;;1751344;82;21052;-75
2022/06/06 02:34:27;;;;;;;10.43;7.20;;;;;;;;;;1751351;82;21041;-75
2022/06/06 02:36:54;;;;;;;9.50;7.20;;;;;;;;;;1751350;82;21107;-74
2022/06/06 02:39:20;;;;;;;9.28;7.15;;;;;;;;;;1748858;82;20982;-74
2022/06/06 02:41:46;;;;;;;10.25;6.92;;;;;;;;;;1751322;82;22150;-74
2022/06/06 02:44:12;;;;;;;15.55;7.83;;;;;;;;;;1751106;82;21071;-74
2022/06/06 02:46:38;;;;;;;9.10;6.80;;;;;;;;;;1751225;82;21070;-75
2022/06/06 02:49:04;;;;;;;9.25;6.92;;;;;;;;;;1750996;82;21067;-73
2022/06/06 02:51:30;;;;;;;9.13;7.95;;;;;;;;;;1751289;82;21044;-75
2022/06/06 02:53:56;;;;;;;11.43;6.97;;;;;;;;;;1751027;82;21536;-74
2022/06/06 02:56:22;;;;;;;8.88;6.97;;;;;;;;;;1751454;82;21218;-75
2022/06/06 02:58:48;;;;;;;10.20;7.97;;;;;;;;;;1751158;82;21591;-75
2022/06/06 03:01:14;;;;;;;12.05;7.87;;;;;;;;;;1751248;82;21048;-75
2022/06/06 03:03:40;;;;;;;10.45;7.25;;;;;;;;;;1751044;80;21052;-74
2022/06/06 03:06:08;;;;;;;9.73;7.53;;;;;;;;;;1751131;80;21056;-74
2022/06/06 03:08:42;;;;;;;9.33;7.20;;;;;;;;;;1750973;82;21589;-75
2022/06/06 03:11:18;;;;;;;10.43;7.40;;;;;;;;;;1751174;82;21052;-75
2022/06/06 03:13:49;;;;;;;9.63;7.30;;;;;;;;;;1750686;82;21509;-74
2022/06/06 03:22:32;;;;;;;9.18;7.15;;;;;;;;;;1751293;82;21037;-75
2022/06/06 03:25:09;;;;;;;9.60;6.83;;;;;;;;;;1750929;82;21551;-75
2022/06/06 03:27:43;;;;;;;10.58;7.47;;;;;;;;;;1751336;82;21025;-75
2022/06/06 03:30:11;;;;;;;11.12;7.55;;;;;;;;;;1751259;82;21040;-75
2022/06/06 03:32:57;;;;;;;10.88;6.78;;;;;;;;;;1751267;82;21001;-75
2022/06/06 03:35:26;;;;;;;9.65;7.70;;;;;;;;;;1750930;82;21036;-75
2022/06/06 03:37:53;;;;;;;10.10;8.05;;;;;;;;;;1751258;82;21567;-75
2022/06/06 03:40:24;;;;;;;9.98;7.08;;;;;;;;;;1750966;82;21127;-76
2022/06/06 03:43:09;;;;;;;9.75;7.53;;;;;;;;;;1751230;82;21104;-76
2022/06/06 03:45:38;;;;;;;13.15;8.55;;;;;;;;;;1750047;82;21063;-75
2022/06/06 03:48:15;;;;;;;11.63;7.90;;;;;;;;;;1751365;82;21103;-75
2022/06/06 03:50:58;;;;;;;10.88;7.70;;;;;;;;;;1750908;82;21032;-75
2022/06/06 03:53:29;;;;;;;10.70;7.85;;;;;;;;;;1751417;82;21052;-76
2022/06/06 03:56:12;;;;;;;10.13;7.20;;;;;;;;;;1751282;82;21500;-76
2022/06/06 03:58:39;;;;;;;9.15;6.90;;;;;;;;;;1751254;82;21116;-75
2022/06/06 04:01:07;;;;;;;9.63;6.70;;;;;;;;;;1751429;82;21027;-75
2022/06/06 04:03:33;;;;;;;9.08;6.65;;;;;;;;;;1751466;80;21143;-75
2022/06/06 04:06:02;;;;;;;11.73;6.60;;;;;;;;;;1751025;80;21052;-75
2022/06/06 04:08:29;;;;;;;10.70;6.03;;;;;;;;;;1751492;82;21575;-75
2022/06/06 04:10:59;;;;;;;6.25;5.05;;;;;;;;;;1751158;82;21131;-76
2022/06/06 04:13:27;;;;;;;6.30;5.40;;;;;;;;;;1751483;82;21039;-75
2022/06/06 04:15:58;;;;;;;7.05;4.97;;;;;;;;;;1748799;82;21104;-75
2022/06/06 04:18:29;;;;;;;6.05;5.00;;;;;;;;;;1750934;82;21052;-75
2022/06/06 04:21:03;;;;;;;8.38;4.70;;;;;;;;;;1751156;82;21060;-75
2022/06/06 04:23:37;;;;;;;5.97;4.80;;;;;;;;;;1751270;82;21013;-74
2022/06/06 04:26:20;;;;;;;4.62;4.22;;;;;;;;;;1750885;82;22178;-75
2022/06/06 04:28:46;;;;;;;;;;;;;;;;;;1753966;82;21078;-75
2022/06/06 04:31:13;;;;;;;5.47;4.15;;;;;;;;;;1751418;82;20102;-75
2022/06/06 04:33:42;;;;;;;5.62;4.33;;;;;;;;;;1751209;82;21550;-75
2022/06/06 04:36:10;;;;;;;5.10;4.10;;;;;;;;;;1732207;82;21039;-74
2022/06/06 04:38:41;;;;;;;4.62;3.77;;;;;;;;;;1751543;82;21042;-74
2022/06/06 04:41:15;;;;;;;3.92;3.52;;;;;;;;;;1743436;82;21114;-75
2022/06/06 04:43:44;;;;;;;4.08;3.33;;;;;;;;;;1750728;82;21065;-75
2022/06/06 04:46:12;;;;;;;3.80;3.40;;;;;;;;;;1751498;82;21627;-75
2022/06/06 04:48:38;;;;;;;3.55;3.17;;;;;;;;;;1751251;82;21072;-74
2022/06/06 04:51:04;;;;;;;3.65;3.10;;;;;;;;;;1751408;82;21005;-74
2022/06/06 04:53:30;;;;;;;5.45;3.17;;;;;;;;;;1751476;82;21605;-74
2022/06/06 04:55:56;;;;;;;4.03;2.77;;;;;;;;;;1751252;82;20996;-74
2022/06/06 04:58:23;;;;;;;3.37;2.90;;;;;;;;;;1751066;82;21064;-74
2022/06/06 05:00:50;;;;;;;3.65;3.02;;;;;;;;;;1751391;82;21048;-74
2022/06/06 05:03:16;;;;;;;4.47;2.90;;;;;;;;;;1751257;80;21079;-75
2022/06/06 05:06:02;;;;;;;10.15;3.58;;;;;;;;;;1751172;82;21021;-73
2022/06/06 05:08:45;;;;;;;3.67;3.05;;;;;;;;;;1662531;86;21565;-73
2022/06/06 05:11:19;;;;;;;6.80;3.27;;;;;;;;;;1662390;85;21104;-73
2022/06/06 05:13:53;;;;;;;3.95;3.05;;;;;;;;;;1703493;82;21036;-74
2022/06/06 05:16:36;;;;;;;3.33;2.72;;;;;;;;;;1750863;82;21090;-75
2022/06/06 05:19:05;;;;;;;4.92;3.20;;;;;;;;;;1662684;86;21127;-74
2022/06/06 05:21:42;;;;;;;4.53;3.08;;;;;;;;;;1717542;82;21123;-74
2022/06/06 05:24:13;;;;;;;3.58;2.87;;;;;;;;;;1743897;82;20990;-73
2022/06/06 05:26:42;;;;;;;3.80;3.20;;;;;;;;;;1735600;83;21050;-74
2022/06/06 05:29:19;;;;;;;2.75;2.40;;;;;;;;;;1735627;83;21542;-73
2022/06/06 05:32:04;;;;;;;3.20;2.42;;;;;;;;;;1735483;83;21054;-74
2022/06/06 05:34:41;;;;;;;6.75;2.25;;;;;;;;;;1715242;83;21072;-73
2022/06/06 05:37:27;;;;;;;3.85;2.50;;;;;;;;;;1735818;83;21265;-73
2022/06/06 05:40:12;;;;;;;3.05;2.20;;;;;;;;;;1735663;83;21006;-74
2022/06/06 05:42:57;;;;;;;4.50;2.40;;;;;;;;;;1703038;83;21115;-74
2022/06/06 05:45:34;;;;;;;2.65;2.25;;;;;;;;;;1756064;81;21048;-73
2022/06/06 05:48:09;;;;;;;3.87;2.45;;;;;;;;;;1759343;81;21075;-73
2022/06/06 05:50:39;;;;;;;2.45;2.15;;;;;;;;;;1746015;81;21528;-74
2022/06/06 05:53:22;;;;;;;3.05;2.30;;;;;;;;;;1691007;83;21153;-74
2022/06/06 05:56:07;;;;;;;3.77;2.20;;;;;;;;;;1751947;81;21133;-74
2022/06/06 05:58:45;;;;;;;3.83;2.25;;;;;;;;;;1747267;81;21042;-75
2022/06/06 06:01:31;;;;;;;3.12;2.25;;;;;;;;;;1759348;81;21065;-75
2022/06/06 06:04:00;;;;;;;2.83;2.33;;;;;;;;;;1758174;80;21050;-75
2022/06/06 06:06:33;;;;;;;4.37;2.40;;;;;;;;;;1759362;81;21066;-75
2022/06/06 06:09:10;;;;;;;4.70;2.60;;;;;;;;;;1759758;81;21398;-75
2022/06/06 06:11:41;;;;;;;2.92;2.40;;;;;;;;;;1759753;80;21588;-75
2022/06/06 06:14:12;;;;;;;4.12;2.47;;;;;;;;;;1758657;81;21050;-75
2022/06/06 06:16:40;;;;;;;3.00;2.25;;;;;;;;;;1729594;82;21620;-75
2022/06/06 06:19:11;;;;;;;4.30;2.50;;;;;;;;;;1729645;82;21030;-75
2022/06/06 06:21:39;;;;;;;3.67;2.10;;;;;;;;;;1728008;82;21127;-76
2022/06/06 06:24:08;;;;;;;2.85;2.08;;;;;;;;;;1729430;82;21640;-75
2022/06/06 06:26:35;;;;;;;3.02;2.22;;;;;;;;;;1706368;84;21551;-73
2022/06/06 06:29:02;;;;;;;2.92;2.20;;;;;;;;;;1695957;84;21041;-74
2022/06/06 06:31:33;;;;;;;2.87;2.10;;;;;;;;;;1695910;84;21036;-74
2022/06/06 06:34:08;;;;;;;3.27;2.30;;;;;;;;;;1675030;84;21069;-74
2022/06/06 06:36:43;;;;;;;3.12;2.20;;;;;;;;;;1729076;83;21140;-73
2022/06/06 06:39:11;;;;;;;3.10;2.25;;;;;;;;;;1728841;83;21073;-74
2022/06/06 06:41:48;;;;;;;4.40;2.40;;;;;;;;;;1706730;83;21115;-74
2022/06/06 06:44:16;;;;;;;4.62;2.35;;;;;;;;;;1696055;84;21044;-74
2022/06/06 06:46:43;;;;;;;3.60;2.35;;;;;;;;;;1696011;84;21532;-75
2022/06/06 06:49:17;;;;;;;2.62;2.10;;;;;;;;;;1696592;84;21100;-75
2022/06/06 06:52:02;;;;;;;3.42;2.45;;;;;;;;;;1695716;84;21111;-75
2022/06/06 06:54:36;;;;;;;3.22;2.40;;;;;;;;;;1696083;83;20982;-76
2022/06/06 06:57:11;;;;;;;3.83;2.25;;;;;;;;;;1676446;84;21115;-73
2022/06/06 06:59:58;;;;;;;4.20;2.00;;;;;;;;;;1695892;84;21088;-72
2022/06/06 07:11:12;;;;;;;4.47;2.10;;;;;;;;;;1743034;82;21635;-75
2022/06/06 07:13:52;;;;;;;4.03;2.33;;;;;;;;;;1744869;82;21021;-75
2022/06/06 07:16:23;;;;;;;2.80;2.30;;;;;;;;;;1743909;82;21063;-75
2022/06/06 07:18:51;;;;;;;7.40;2.33;;;;;;;;;;1738394;81;21074;-76
2022/06/06 07:21:18;;;;;;;2.62;2.10;;;;;;;;;;1738364;82;21052;-73
2022/06/06 07:23:46;;;;;;;3.92;2.30;;;;;;;;;;1728836;83;21102;-72
2022/06/06 07:26:12;;;;;;;2.90;2.30;;;;;;;;;;1729938;82;21045;-78
2022/06/06 07:28:38;;;;;;;2.35;2.00;;;;;;;;;;1728433;83;21076;-77
2022/06/06 07:31:24;;;;;;;2.47;2.20;;;;;;;;;;1728820;83;21508;-76
2022/06/06 07:34:00;;;;;;;2.90;2.15;;;;;;;;;;1729012;83;21046;-77
2022/06/06 07:36:29;;;;;;;3.72;2.30;;;;;;;;;;1728483;83;21044;-76
2022/06/06 07:39:15;;;;;;;4.37;2.50;;;;;;;;;;1711067;83;21564;-76
2022/06/06 07:41:49;;;;;;;3.02;2.15;;;;;;;;;;1729014;83;21032;-76
2022/06/06 07:44:17;;;;;;;5.08;2.20;;;;;;;;;;1728866;83;21052;-77
2022/06/06 07:47:38;;;;;;;3.10;2.45;;;;;;;;;;1802032;79;23526;-76
2022/06/06 07:50:06;;;;;;;2.80;2.20;;;;;;;;;;1761736;81;21602;-77
2022/06/06 07:52:34;;;;;;;3.45;2.30;;;;;;;;;;1761564;81;21570;-77
2022/06/06 07:55:05;;;;;;;3.00;2.00;;;;;;;;;;1761550;81;22068;-76
2022/06/06 07:57:39;;;;;;;5.08;2.50;;;;;;;;;;1762278;81;21009;-78
2022/06/06 08:00:10;;;;;;;3.55;2.22;;;;;;;;;;1761881;81;21087;-78
2022/06/06 08:02:47;;;;;;;3.33;2.30;;;;;;;;;;1756818;81;21061;-78
2022/06/06 08:05:33;;;;;;;2.47;2.27;;;;;;;;;;1729979;82;20989;-78
2022/06/06 08:08:11;;;;;;;3.85;2.20;;;;;;;;;;1729973;83;21041;-78
2022/06/06 08:10:39;;;;;;;3.15;2.33;;;;;;;;;;1730164;82;21041;-77
2022/06/06 08:13:17;;;;;;;2.77;2.27;;;;;;;;;;1729948;83;21036;-77
2022/06/06 08:15:49;;;;;;;3.85;2.42;;;;;;;;;;1730106;82;21096;-77
2022/06/06 08:18:20;;;;;;;3.95;2.45;;;;;;;;;;1729904;83;21120;-77
2022/06/06 08:21:00;;;;;;;3.65;2.37;;;;;;;;;;1729948;82;21061;-77
2022/06/06 08:23:27;;;;;;;2.72;2.37;;;;;;;;;;1729765;82;21520;-77
2022/06/06 08:25:53;;;;;;;2.77;2.37;;;;;;;;;;1729993;82;21032;-77
2022/06/06 08:28:19;;;;;;;2.85;2.42;;;;;;;;;;1730120;83;21028;-77
2022/06/06 08:30:46;;;;;;;4.00;2.60;;;;;;;;;;1729922;82;21606;-76
2022/06/06 08:33:12;;;;;;;8.43;2.50;;;;;;;;;;1730029;83;21068;-76
2022/06/06 08:35:40;;;;;;;2.75;2.40;;;;;;;;;;1730040;83;20989;-77
2022/06/06 08:38:17;;;;;;;3.27;2.75;;;;;;;;;;1729397;82;21540;-77
2022/06/06 08:40:48;;;;;;;3.72;2.47;;;;;;;;;;1729976;82;21111;-78
2022/06/06 08:43:32;;;;;;;4.70;2.45;;;;;;;;;;1730063;83;21178;-76
2022/06/06 08:46:06;;;;;;;3.20;2.37;;;;;;;;;;1726609;82;21044;-76
2022/06/06 08:48:41;;;;;;;3.90;2.50;;;;;;;;;;1728680;83;21041;-76
2022/06/06 08:51:12;;;;;;;3.35;2.50;;;;;;;;;;1730163;82;21099;-76
2022/06/06 08:53:48;;;;;;;2.70;2.00;;;;;;;;;;1730271;83;21029;-77
2022/06/06 08:56:32;;;;;;;3.20;2.30;;;;;;;;;;1729253;83;21078;-74
2022/06/06 08:59:16;;;;;;;3.62;2.40;;;;;;;;;;1729736;82;21019;-72
2022/06/06 09:01:45;;;;;;;2.85;2.27;;;;;;;;;;1727251;82;21072;-74
2022/06/06 09:04:22;;;;;;;3.58;2.30;;;;;;;;;;1724339;82;21084;-75
2022/06/06 09:07:00;;;;;;;2.92;2.37;;;;;;;;;;1716958;83;21021;-76
2022/06/06 09:09:28;;;;;;;3.33;2.10;;;;;;;;;;1729145;83;21051;-75
2022/06/06 09:12:11;;;;;;;3.05;2.30;;;;;;;;;;1689985;82;21042;-74
2022/06/06 09:14:39;;;;;;;8.35;2.72;;;;;;;;;;1722920;83;21032;-75
2022/06/06 09:17:10;;;;;;;2.77;2.12;;;;;;;;;;1724100;83;21104;-75
2022/06/06 09:19:57;;;;;;;2.62;2.30;;;;;;;;;;1723343;83;21100;-76
2022/06/06 09:22:25;;;;;;;3.10;2.22;;;;;;;;;;1716785;83;21532;-76
2022/06/06 09:24:53;;;;;;;3.30;2.35;;;;;;;;;;1699224;84;21112;-76
2022/06/06 09:27:21;;;;;;;4.65;2.55;;;;;;;;;;1722825;83;21046;-76
2022/06/06 09:29:48;;;;;;;3.52;2.75;;;;;;;;;;1729833;83;21422;-76
2022/06/06 09:32:22;;;;;;;2.22;2.00;;;;;;;;;;1729827;83;21016;-76
2022/06/06 09:35:03;;;;;;;2.35;2.05;;;;;;;;;;1722924;83;21040;-76
2022/06/06 09:37:48;;;;;;;2.08;1.82;;;;;;;;;;1713499;83;21069;-75
2022/06/06 09:40:17;;;;;;;2.37;2.02;;;;;;;;;;1729517;83;21690;-76
2022/06/06 09:42:46;;;;;;;2.67;2.00;;;;;;;;;;1729775;82;21069;-76
2022/06/06 09:45:27;;;;;;;2.50;2.20;;;;;;;;;;1727091;82;21064;-75
2022/06/06 09:47:55;;;;;;;2.30;2.10;;;;;;;;;;1728844;83;21042;-74
2022/06/06 09:50:23;;;;;;;3.02;2.30;;;;;;;;;;1728695;83;21078;-75
2022/06/06 09:52:57;;;;;;;3.05;2.00;;;;;;;;;;1727202;83;21076;-75
2022/06/06 10:01:04;;;;;;;2.55;2.10;;;;;;;;;;1700543;84;21041;-77
2022/06/06 10:03:39;;;;;;;4.12;2.25;;;;;;;;;;1717630;82;21098;-76
2022/06/06 10:06:13;;;;;;;2.45;2.20;;;;;;;;;;1724392;83;21573;-76
2022/06/06 10:08:56;;;;;;;3.75;2.30;;;;;;;;;;1725404;82;21048;-76
2022/06/06 10:11:27;;;;;;;3.58;2.25;;;;;;;;;;1700309;84;21143;-76
2022/06/06 10:13:55;;;;;;;2.05;1.85;;;;;;;;;;1714628;83;21029;-75
2022/06/06 10:16:23;;;;;;;2.45;2.20;;;;;;;;;;1728733;83;20993;-75
2022/06/06 10:19:06;;;;;;;2.35;1.90;;;;;;;;;;1729468;83;21052;-75
2022/06/06 10:21:44;;;;;;;2.08;1.90;;;;;;;;;;1727389;82;21070;-74
2022/06/06 10:24:13;;;;;;;3.30;2.12;;;;;;;;;;1733855;82;21049;-74
2022/06/06 10:26:47;;;;;;;2.62;2.30;;;;;;;;;;1726848;82;21019;-74
2022/06/06 10:29:21;;;;;;;3.47;2.52;;;;;;;;;;1727046;82;21017;-75
2022/06/06 10:32:05;;;;;;;3.30;2.25;;;;;;;;;;1721429;82;21119;-75
2022/06/06 10:34:36;;;;;;;6.28;2.47;;;;;;;;;;1695184;85;21084;-74
2022/06/06 10:37:16;;;;;;;3.90;2.42;;;;;;;;;;1694961;83;21049;-75
2022/06/06 10:39:59;;;;;;;2.40;2.05;;;;;;;;;;1695265;85;21060;-75
2022/06/06 10:42:30;;;;;;;15.50;2.75;;;;;;;;;;1728144;83;21044;-75
2022/06/06 10:44:58;;;;;;;2.47;1.80;;;;;;;;;;1707007;83;21072;-75
2022/06/06 10:47:41;;;;;;;3.65;2.22;;;;;;;;;;1725154;83;21517;-75
2022/06/06 10:50:09;;;;;;;2.15;1.77;;;;;;;;;;1721612;83;21614;-73
2022/06/06 10:52:50;;;;;;;2.30;1.80;;;;;;;;;;1721920;82;21359;-74
2022/06/06 10:55:24;;;;;;;1.90;1.70;;;;;;;;;;1715903;83;21015;-73
2022/06/06 10:57:52;;;;;;;3.20;2.00;;;;;;;;;;1711153;83;21056;-72
2022/06/06 11:00:37;;;;;;;2.70;2.15;;;;;;;;;;1722255;83;21041;-73
2022/06/06 11:03:16;;;;;;;1.70;1.60;;;;;;;;;;1722187;82;22231;-73
2022/06/06 11:06:04;;;;;;;2.35;2.00;;;;;;;;;;1706528;83;21514;-72
2022/06/06 11:08:36;;;;;;;2.67;2.00;;;;;;;;;;1722064;83;21113;-74
2022/06/06 11:11:10;;;;;;;1.70;1.60;;;;;;;;;;1721743;83;21094;-74
2022/06/06 11:13:39;;;;;;;6.33;2.37;;;;;;;;;;1722178;82;21074;-74
2022/06/06 11:16:10;;;;;;;3.00;2.10;;;;;;;;;;1721839;83;21062;-81
2022/06/06 11:18:39;;;;;;;4.17;2.00;;;;;;;;;;1722114;83;21073;-78
2022/06/06 11:21:11;;;;;;;3.27;2.25;;;;;;;;;;1721755;83;21597;-77
2022/06/06 11:23:43;;;;;;;2.92;2.08;;;;;;;;;;1711315;83;21052;-78
2022/06/06 11:26:14;;;;;;;3.98;2.10;;;;;;;;;;1721795;83;21066;-80
2022/06/06 11:28:45;;;;;;;2.70;2.10;;;;;;;;;;1721913;82;21016;-79
2022/06/06 11:31:19;;;;;;;2.98;2.12;;;;;;;;;;1721752;83;21076;-80
2022/06/06 11:33:53;;;;;;;2.87;2.20;;;;;;;;;;1722238;82;21104;-79
2022/06/06 11:36:27;;;;;;;2.55;2.27;;;;;;;;;;1722041;83;21025;-81
2022/06/06 11:39:12;;;;;;;2.42;2.15;;;;;;;;;;1722135;83;21011;-80
2022/06/06 11:41:44;;;;;;;2.10;1.90;;;;;;;;;;1721887;82;21613;-80
2022/06/06 11:44:12;;;;;;;2.72;2.15;;;;;;;;;;1721384;83;21046;-80
2022/06/06 11:46:56;;;;;;;5.45;2.25;;;;;;;;;;1723097;82;21637;-79
2022/06/06 11:49:29;;;;;;;3.02;2.08;;;;;;;;;;1729979;82;21077;-80
2022/06/06 11:52:14;;;;;;;3.62;2.05;;;;;;;;;;1726239;83;21013;-80
2022/06/06 11:54:47;;;;;;;2.98;1.90;;;;;;;;;;1715430;83;21478;-80
2022/06/06 11:57:18;;;;;;;5.40;2.20;;;;;;;;;;1698971;84;21054;-80
2022/06/06 11:59:48;;;;;;;4.58;2.55;;;;;;;;;;1728484;82;21059;-80
2022/06/06 12:02:32;;;;;;;2.37;2.17;;;;;;;;;;1742027;82;21634;-79
2022/06/06 12:05:20;;;;;;;4.65;2.17;;;;;;;;;;1716565;82;21075;-80
2022/06/06 12:08:00;;;;;;;3.10;2.20;;;;;;;;;;1742102;82;21024;-80
2022/06/06 12:10:28;;;;;;;2.55;2.10;;;;;;;;;;1754912;81;21063;-80
2022/06/06 12:13:02;;;;;;;2.60;2.05;;;;;;;;;;1760177;81;21032;-82
2022/06/06 12:15:47;;;;;;;2.42;2.17;;;;;;;;;;1760036;81;21633;-80
2022/06/06 12:18:27;;;;;;;3.83;2.00;;;;;;;;;;1760233;81;21055;-82
2022/06/06 12:20:58;;;;;;;3.30;2.17;;;;;;;;;;1749621;81;21051;-81
2022/06/06 12:23:43;;;;;;;3.30;2.08;;;;;;;;;;1743612;81;21131;-81
2022/06/06 12:26:27;;;;;;;2.20;2.00;;;;;;;;;;1742418;82;21585;-80
2022/06/06 12:29:13;;;;;;;3.58;2.20;;;;;;;;;;1735178;81;21056;-78
2022/06/06 12:31:58;;;;;;;4.25;2.20;;;;;;;;;;1750272;81;21018;-79
2022/06/06 12:34:26;;;;;;;3.25;2.42;;;;;;;;;;1729762;83;21036;-79
2022/06/06 12:37:11;;;;;;;4.03;2.37;;;;;;;;;;1729312;81;21163;-78
2022/06/06 12:39:46;;;;;;;4.85;2.30;;;;;;;;;;1751672;81;21072;-79
2022/06/06 12:42:31;;;;;;;3.95;2.20;;;;;;;;;;1738906;81;22111;-79
2022/06/06 12:45:14;;;;;;;3.40;2.30;;;;;;;;;;1728011;83;21017;-79
2022/06/06 12:47:45;;;;;;;2.83;2.15;;;;;;;;;;1728873;82;21037;-80
2022/06/06 12:50:13;;;;;;;3.72;2.30;;;;;;;;;;1719554;82;21053;-81
2022/06/06 12:52:44;;;;;;;3.42;2.12;;;;;;;;;;1724509;83;21045;-79
2022/06/06 12:58:07;;;;;;;3.50;2.30;;;;;;;;;;1720976;82;21052;-80
2022/06/06 13:03:38;;;;;;;2.25;2.02;;;;;;;;;;1724923;82;21120;-80
2022/06/06 13:06:05;;;;;;;4.12;2.42;;;;;;;;;;1718903;83;21072;-82
2022/06/06 13:08:50;;;;;;;2.67;2.00;;;;;;;;;;1718750;83;21103;-80
2022/06/06 13:11:27;;;;;;;3.30;2.40;;;;;;;;;;1718522;83;21095;-80
2022/06/06 13:13:56;;;;;;;3.22;2.20;;;;;;;;;;1751805;82;21040;-75
2022/06/06 13:16:31;;;;;;;5.35;2.62;;;;;;;;;;1756983;82;21064;-79
2022/06/06 13:19:18;;;;;;;3.92;2.42;;;;;;;;;;1743629;82;21076;-80
2022/06/06 13:21:52;;;;;;;2.65;2.37;;;;;;;;;;1745687;82;20985;-80
2022/06/06 13:24:24;;;;;;;4.80;2.10;;;;;;;;;;1757924;81;21067;-80
2022/06/06 13:26:52;;;;;;;4.10;2.25;;;;;;;;;;1749753;82;21033;-80
2022/06/06 13:29:26;;;;;;;4.05;2.10;;;;;;;;;;1753379;82;21520;-80
2022/06/06 13:32:02;;;;;;;3.00;2.20;;;;;;;;;;1757328;82;21519;-81
2022/06/06 13:34:34;;;;;;;8.58;2.30;;;;;;;;;;1757056;81;21040;-79
2022/06/06 13:37:14;;;;;;;2.83;2.35;;;;;;;;;;1756057;82;21052;-80
2022/06/06 13:39:58;;;;;;;2.20;2.00;;;;;;;;;;1757415;82;21012;-81
2022/06/06 13:42:32;;;;;;;4.25;2.20;;;;;;;;;;1757380;81;20977;-79
2022/06/06 13:45:04;;;;;;;6.28;2.47;;;;;;;;;;1756958;82;21075;-78
2022/06/06 13:47:39;;;;;;;4.65;2.50;;;;;;;;;;1752782;82;21075;-78
2022/06/06 13:50:10;;;;;;;4.00;2.40;;;;;;;;;;1739607;82;21123;-79
2022/06/06 13:52:48;;;;;;;2.47;2.15;;;;;;;;;;1757288;82;21048;-78
2022/06/06 13:55:19;;;;;;;3.77;2.20;;;;;;;;;;1748074;81;21012;-79
2022/06/06 13:57:47;;;;;;;2.42;2.20;;;;;;;;;;1757029;82;21012;-79
2022/06/06 14:00:18;;;;;;;3.02;2.10;;;;;;;;;;1753163;81;21622;-80
2022/06/06 14:02:58;;;;;;;3.42;2.30;;;;;;;;;;1757008;80;21040;-79
2022/06/06 14:05:26;;;;;;;5.10;2.67;;;;;;;;;;1757255;81;21032;-79
2022/06/06 14:07:58;;;;;;;5.85;2.65;;;;;;;;;;1757116;81;21441;-80
2022/06/06 14:10:25;;;;;;;6.55;2.92;;;;;;;;;;1746974;81;20980;-75
2022/06/06 14:12:55;;;;;;;3.17;2.40;;;;;;;;;;1741666;82;21048;-78
2022/06/06 14:15:22;;;;;;;5.25;2.60;;;;;;;;;;1741868;82;21075;-78
2022/06/06 14:17:54;;;;;;;8.53;3.72;;;;;;;;;;1746983;81;21028;-81
2022/06/06 14:20:37;;;;;;;3.90;2.37;;;;;;;;;;1694942;84;20998;-82
2022/06/06 14:23:21;;;;;;;6.53;2.20;;;;;;;;;;1673027;84;21543;-81
2022/06/06 14:25:48;;;;;;;3.50;2.40;;;;;;;;;;1745142;82;20972;-80
2022/06/06 14:28:20;;;;;;;3.22;2.27;;;;;;;;;;1728168;82;21060;-81
2022/06/06 14:30:45;;;;;;;3.58;2.17;;;;;;;;;;1715154;83;21142;-82
2022/06/06 14:33:22;;;;;;;3.05;2.20;;;;;;;;;;1704909;83;21079;-81
2022/06/06 14:35:48;;;;;;;3.70;2.37;;;;;;;;;;1681422;85;21345;-82
2022/06/06 14:38:26;;;;;;;3.47;2.60;;;;;;;;;;1685056;85;21021;-82
2022/06/06 14:41:02;;;;;;;4.65;2.87;;;;;;;;;;1678233;83;21017;-81
2022/06/06 14:43:28;;;;;;;2.62;2.00;;;;;;;;;;1685731;83;21085;-81
2022/06/06 14:45:55;;;;;;;2.37;2.02;;;;;;;;;;1684851;85;21056;-80
2022/06/06 14:48:33;;;;;;;3.80;2.77;;;;;;;;;;1680537;85;21050;-80
2022/06/06 14:51:00;;;;;;;3.12;2.37;;;;;;;;;;1677245;85;21061;-79
2022/06/06 14:53:30;;;;;;;2.65;2.02;;;;;;;;;;1674855;83;21049;-80
2022/06/06 14:55:58;;;;;;;4.47;2.50;;;;;;;;;;1663270;85;21347;-81
2022/06/06 14:58:25;;;;;;;2.42;2.20;;;;;;;;;;1669985;84;21043;-79
2022/06/06 15:00:54;;;;;;;3.58;2.30;;;;;;;;;;1681552;85;21629;-80
2022/06/06 15:03:20;;;;;;;4.47;2.17;;;;;;;;;;1667221;86;21139;-80
2022/06/06 15:05:46;;;;;;;3.15;2.20;;;;;;;;;;1650148;86;21036;-80
2022/06/06 15:08:24;;;;;;;2.83;2.25;;;;;;;;;;1641444;86;21606;-80
2022/06/06 15:10:55;;;;;;;3.40;2.20;;;;;;;;;;1715995;82;21017;-80
2022/06/06 15:13:22;;;;;;;3.67;2.15;;;;;;;;;;1743613;82;21048;-80
2022/06/06 15:15:49;;;;;;;2.85;2.50;;;;;;;;;;1714170;82;21012;-80
2022/06/06 15:18:21;;;;;;;6.05;2.40;;;;;;;;;;1751438;82;21037;-81
2022/06/06 15:20:52;;;;;;;2.90;2.20;;;;;;;;;;1751407;82;21088;-80
2022/06/06 15:23:17;;;;;;;5.37;2.85;;;;;;;;;;1751213;82;21032;-81
2022/06/06 15:26:04;;;;;;;3.58;2.40;;;;;;;;;;1751611;81;20989;-80
2022/06/06 15:28:32;;;;;;;3.92;2.42;;;;;;;;;;1751629;82;21048;-81
2022/06/06 15:31:01;;;;;;;5.92;2.90;;;;;;;;;;1751696;82;21056;-80
2022/06/06 15:33:36;;;;;;;3.70;2.70;;;;;;;;;;1751228;81;21044;-80
2022/06/06 15:36:13;;;;;;;4.72;2.35;;;;;;;;;;1751398;81;21024;-80
2022/06/06 15:38:44;;;;;;;3.52;2.27;;;;;;;;;;1751381;81;21024;-81
2022/06/06 15:41:12;;;;;;;2.75;2.30;;;;;;;;;;1750830;82;21128;-80
2022/06/06 15:43:45;;;;;;;3.90;2.35;;;;;;;;;;1751676;82;21058;-81
2022/06/06 15:46:16;;;;;;;3.45;2.12;;;;;;;;;;1751555;82;21106;-81